sensor_id;sensor_type;location;lat;lon;timestamp;temperature;humidity
64012;DHT22;50211;52.768;12.124;2023-04-03T00:00:31;0.80;99.90
64012;DHT22;50211;52.768;12.124;2023-04-03T00:02:57;0.80;99.90
64012;DHT22;50211;52.768;12.124;2023-04-03T00:05:23;0.80;99.90
64012;DHT22;50211;52.768;12.124;2023-04-03T00:07:48;0.80;99.90
64012;DHT22;50211;52.768;12.124;2023-04-03T00:10:15;0.70;99.90
64012;DHT22;50211;52.768;12.124;2023-04-03T00:12:41;0.70;99.90
64012;DHT22;50211;52.768;12.124;2023-04-03T00:15:07;0.70;99.90
64012;DHT22;50211;52.768;12.124;2023-04-03T00:17:33;0.70;99.90
64012;DHT22;50211;52.768;12.124;2023-04-03T00:19:58;0.70;99.90
64012;DHT22;50211;52.768;12.124;2023-04-03T00:22:24;0.70;99.90
64012;DHT22;50211;52.768;12.124;2023-04-03T00:24:51;0.70;99.90
64012;DHT22;50211;52.768;12.124;2023-04-03T00:27:17;0.70;99.90
64012;DHT22;50211;52.768;12.124;2023-04-03T00:29:42;0.60;99.90
64012;DHT22;50211;52.768;12.124;2023-04-03T00:32:08;0.60;99.90
64012;DHT22;50211;52.768;12.124;2023-04-03T00:34:33;0.60;99.90
64012;DHT22;50211;52.768;12.124;2023-04-03T00:36:59;0.60;99.90
64012;DHT22;50211;52.768;12.124;2023-04-03T00:39:25;0.60;99.90
64012;DHT22;50211;52.768;12.124;2023-04-03T00:41:50;0.50;99.90
64012;DHT22;50211;52.768;12.124;2023-04-03T00:47:07;0.40;99.90
64012;DHT22;50211;52.768;12.124;2023-04-03T00:49:34;0.40;99.90
64012;DHT22;50211;52.768;12.124;2023-04-03T00:52:00;0.40;99.90
64012;DHT22;50211;52.768;12.124;2023-04-03T00:54:26;0.40;99.90
64012;DHT22;50211;52.768;12.124;2023-04-03T00:56:53;0.40;99.90
64012;DHT22;50211;52.768;12.124;2023-04-03T00:59:44;0.40;99.90
64012;DHT22;50211;52.768;12.124;2023-04-03T01:02:12;0.30;99.90
64012;DHT22;50211;52.768;12.124;2023-04-03T01:04:40;0.40;99.90
64012;DHT22;50211;52.768;12.124;2023-04-03T01:07:15;0.30;99.90
64012;DHT22;50211;52.768;12.124;2023-04-03T01:09:42;0.30;99.90
64012;DHT22;50211;52.768;12.124;2023-04-03T01:12:20;0.40;99.90
64012;DHT22;50211;52.768;12.124;2023-04-03T01:14:53;0.30;99.90
64012;DHT22;50211;52.768;12.124;2023-04-03T01:17:30;0.30;99.90
64012;DHT22;50211;52.768;12.124;2023-04-03T01:23:03;0.10;99.90
64012;DHT22;50211;52.768;12.124;2023-04-03T01:25:31;0.00;99.90
64012;DHT22;50211;52.768;12.124;2023-04-03T01:27:56;0.00;99.90
64012;DHT22;50211;52.768;12.124;2023-04-03T01:30:28;0.00;99.90
64012;DHT22;50211;52.768;12.124;2023-04-03T01:32:56;0.00;99.90
64012;DHT22;50211;52.768;12.124;2023-04-03T01:35:22;0.00;99.90
64012;DHT22;50211;52.768;12.124;2023-04-03T01:37:47;-0.10;99.90
64012;DHT22;50211;52.768;12.124;2023-04-03T01:40:13;-0.10;99.90
64012;DHT22;50211;52.768;12.124;2023-04-03T01:42:38;-0.10;99.90
64012;DHT22;50211;52.768;12.124;2023-04-03T01:45:04;-0.20;99.90
64012;DHT22;50211;52.768;12.124;2023-04-03T01:47:30;-0.20;99.90
64012;DHT22;50211;52.768;12.124;2023-04-03T01:49:55;-0.30;99.90
64012;DHT22;50211;52.768;12.124;2023-04-03T01:52:21;-0.40;99.90
64012;DHT22;50211;52.768;12.124;2023-04-03T01:54:46;-0.50;99.90
64012;DHT22;50211;52.768;12.124;2023-04-03T01:57:12;-0.40;99.90
64012;DHT22;50211;52.768;12.124;2023-04-03T01:59:40;-0.40;99.90
64012;DHT22;50211;52.768;12.124;2023-04-03T02:02:06;-0.40;99.90
64012;DHT22;50211;52.768;12.124;2023-04-03T02:04:32;-0.60;99.90
64012;DHT22;50211;52.768;12.124;2023-04-03T02:06:57;-0.60;99.90
64012;DHT22;50211;52.768;12.124;2023-04-03T02:09:23;-0.70;99.90
64012;DHT22;50211;52.768;12.124;2023-04-03T02:11:48;-0.80;99.90
64012;DHT22;50211;52.768;12.124;2023-04-03T02:14:14;-0.90;99.90
64012;DHT22;50211;52.768;12.124;2023-04-03T02:16:39;-0.80;99.90
64012;DHT22;50211;52.768;12.124;2023-04-03T02:19:05;-0.70;99.90
64012;DHT22;50211;52.768;12.124;2023-04-03T02:21:30;-0.70;99.90
64012;DHT22;50211;52.768;12.124;2023-04-03T02:23:56;-0.70;99.90
64012;DHT22;50211;52.768;12.124;2023-04-03T02:26:22;-0.80;99.90
64012;DHT22;50211;52.768;12.124;2023-04-03T02:28:47;-0.80;99.90
64012;DHT22;50211;52.768;12.124;2023-04-03T02:31:13;-0.90;99.90
64012;DHT22;50211;52.768;12.124;2023-04-03T02:33:38;-0.90;99.90
64012;DHT22;50211;52.768;12.124;2023-04-03T02:36:05;-0.90;99.90
64012;DHT22;50211;52.768;12.124;2023-04-03T02:38:31;-1.00;99.90
64012;DHT22;50211;52.768;12.124;2023-04-03T02:41:08;-0.90;99.90
64012;DHT22;50211;52.768;12.124;2023-04-03T02:43:34;-0.80;99.90
64012;DHT22;50211;52.768;12.124;2023-04-03T02:46:00;-0.80;99.90
64012;DHT22;50211;52.768;12.124;2023-04-03T02:48:26;-0.80;99.90
64012;DHT22;50211;52.768;12.124;2023-04-03T02:50:51;-0.90;99.90
64012;DHT22;50211;52.768;12.124;2023-04-03T02:53:18;-0.80;99.90
64012;DHT22;50211;52.768;12.124;2023-04-03T02:55:44;-0.90;99.90
64012;DHT22;50211;52.768;12.124;2023-04-03T02:58:10;-0.90;99.90
64012;DHT22;50211;52.768;12.124;2023-04-03T03:00:36;-0.90;99.90
64012;DHT22;50211;52.768;12.124;2023-04-03T03:03:02;-0.90;99.90
64012;DHT22;50211;52.768;12.124;2023-04-03T03:05:28;-0.80;99.90
64012;DHT22;50211;52.768;12.124;2023-04-03T03:07:54;-0.90;99.90
64012;DHT22;50211;52.768;12.124;2023-04-03T03:10:20;-0.90;99.90
64012;DHT22;50211;52.768;12.124;2023-04-03T03:12:45;-0.90;99.90
64012;DHT22;50211;52.768;12.124;2023-04-03T03:15:11;-0.80;99.90
64012;DHT22;50211;52.768;12.124;2023-04-03T03:17:37;-0.80;99.90
64012;DHT22;50211;52.768;12.124;2023-04-03T03:20:06;-0.80;99.90
64012;DHT22;50211;52.768;12.124;2023-04-03T03:22:33;-0.80;99.90
64012;DHT22;50211;52.768;12.124;2023-04-03T03:24:59;-0.70;99.90
64012;DHT22;50211;52.768;12.124;2023-04-03T03:27:26;-0.80;99.90
64012;DHT22;50211;52.768;12.124;2023-04-03T03:29:51;-0.70;99.90
64012;DHT22;50211;52.768;12.124;2023-04-03T03:32:17;-0.70;99.90
64012;DHT22;50211;52.768;12.124;2023-04-03T03:34:42;-0.70;99.90
64012;DHT22;50211;52.768;12.124;2023-04-03T03:37:07;-0.70;99.90
64012;DHT22;50211;52.768;12.124;2023-04-03T03:39:33;-0.80;99.90
64012;DHT22;50211;52.768;12.124;2023-04-03T03:41:58;-0.80;99.90
64012;DHT22;50211;52.768;12.124;2023-04-03T03:44:24;-0.70;99.90
64012;DHT22;50211;52.768;12.124;2023-04-03T03:46:50;-0.80;99.90
64012;DHT22;50211;52.768;12.124;2023-04-03T03:49:15;-0.80;99.90
64012;DHT22;50211;52.768;12.124;2023-04-03T03:51:41;-0.80;99.90
64012;DHT22;50211;52.768;12.124;2023-04-03T03:54:07;-0.80;99.90
64012;DHT22;50211;52.768;12.124;2023-04-03T03:56:33;-0.90;99.90
64012;DHT22;50211;52.768;12.124;2023-04-03T03:58:58;-0.80;99.90
64012;DHT22;50211;52.768;12.124;2023-04-03T04:01:24;-0.80;99.90
64012;DHT22;50211;52.768;12.124;2023-04-03T04:03:50;-0.80;99.90
64012;DHT22;50211;52.768;12.124;2023-04-03T04:06:16;-0.80;99.90
64012;DHT22;50211;52.768;12.124;2023-04-03T04:08:41;-0.80;99.90
64012;DHT22;50211;52.768;12.124;2023-04-03T04:11:08;-0.80;99.90
64012;DHT22;50211;52.768;12.124;2023-04-03T04:13:33;-0.80;99.90
64012;DHT22;50211;52.768;12.124;2023-04-03T04:15:59;-0.90;99.90
64012;DHT22;50211;52.768;12.124;2023-04-03T04:18:24;-0.90;99.90
64012;DHT22;50211;52.768;12.124;2023-04-03T04:20:50;-0.90;99.90
64012;DHT22;50211;52.768;12.124;2023-04-03T04:23:17;-1.00;99.90
64012;DHT22;50211;52.768;12.124;2023-04-03T04:25:47;-1.00;99.90
64012;DHT22;50211;52.768;12.124;2023-04-03T04:28:13;-1.10;99.90
64012;DHT22;50211;52.768;12.124;2023-04-03T04:30:39;-1.10;99.90
64012;DHT22;50211;52.768;12.124;2023-04-03T04:33:05;-1.20;99.90
64012;DHT22;50211;52.768;12.124;2023-04-03T04:35:32;-1.30;99.90
64012;DHT22;50211;52.768;12.124;2023-04-03T04:37:57;-1.30;99.90
64012;DHT22;50211;52.768;12.124;2023-04-03T04:40:23;-1.30;99.90
64012;DHT22;50211;52.768;12.124;2023-04-03T04:42:48;-1.30;99.90
64012;DHT22;50211;52.768;12.124;2023-04-03T04:45:14;-1.40;99.90
64012;DHT22;50211;52.768;12.124;2023-04-03T04:47:40;-1.40;99.90
64012;DHT22;50211;52.768;12.124;2023-04-03T04:50:06;-1.40;99.90
64012;DHT22;50211;52.768;12.124;2023-04-03T04:52:32;-1.50;99.90
64012;DHT22;50211;52.768;12.124;2023-04-03T04:54:57;-1.50;99.90
64012;DHT22;50211;52.768;12.124;2023-04-03T04:57:23;-1.50;99.90
64012;DHT22;50211;52.768;12.124;2023-04-03T04:59:48;-1.50;99.90
64012;DHT22;50211;52.768;12.124;2023-04-03T05:02:14;-1.40;99.90
64012;DHT22;50211;52.768;12.124;2023-04-03T05:04:40;-1.40;99.90
64012;DHT22;50211;52.768;12.124;2023-04-03T05:07:06;-1.40;99.90
64012;DHT22;50211;52.768;12.124;2023-04-03T05:09:31;-1.40;99.90
64012;DHT22;50211;52.768;12.124;2023-04-03T05:11:57;-1.40;99.90
64012;DHT22;50211;52.768;12.124;2023-04-03T05:14:22;-1.30;99.90
64012;DHT22;50211;52.768;12.124;2023-04-03T05:16:48;-1.20;99.90
64012;DHT22;50211;52.768;12.124;2023-04-03T05:19:14;-1.30;99.90
64012;DHT22;50211;52.768;12.124;2023-04-03T05:21:39;-1.30;99.90
64012;DHT22;50211;52.768;12.124;2023-04-03T05:24:05;-1.30;99.90
64012;DHT22;50211;52.768;12.124;2023-04-03T05:26:34;-1.20;99.90
64012;DHT22;50211;52.768;12.124;2023-04-03T05:29:00;-1.10;99.90
64012;DHT22;50211;52.768;12.124;2023-04-03T05:31:25;-1.00;99.90
64012;DHT22;50211;52.768;12.124;2023-04-03T05:33:51;-1.00;99.90
64012;DHT22;50211;52.768;12.124;2023-04-03T05:36:16;-0.90;99.90
64012;DHT22;50211;52.768;12.124;2023-04-03T05:38:42;-0.90;99.90
64012;DHT22;50211;52.768;12.124;2023-04-03T05:41:08;-0.80;99.90
64012;DHT22;50211;52.768;12.124;2023-04-03T05:43:33;-0.70;99.90
64012;DHT22;50211;52.768;12.124;2023-04-03T05:46:00;-0.70;99.90
64012;DHT22;50211;52.768;12.124;2023-04-03T05:48:25;-0.70;99.90
64012;DHT22;50211;52.768;12.124;2023-04-03T05:50:51;-0.60;99.90
64012;DHT22;50211;52.768;12.124;2023-04-03T05:53:29;-0.50;99.90
64012;DHT22;50211;52.768;12.124;2023-04-03T05:55:56;-0.50;99.90
64012;DHT22;50211;52.768;12.124;2023-04-03T05:58:22;-0.40;99.90
64012;DHT22;50211;52.768;12.124;2023-04-03T06:00:47;-0.30;99.90
64012;DHT22;50211;52.768;12.124;2023-04-03T06:03:13;-0.20;99.90
64012;DHT22;50211;52.768;12.124;2023-04-03T06:05:39;-0.20;99.90
64012;DHT22;50211;52.768;12.124;2023-04-03T06:08:04;-0.10;99.90
64012;DHT22;50211;52.768;12.124;2023-04-03T06:10:31;0.00;99.90
64012;DHT22;50211;52.768;12.124;2023-04-03T06:12:56;0.00;99.90
64012;DHT22;50211;52.768;12.124;2023-04-03T06:15:22;0.10;99.90
64012;DHT22;50211;52.768;12.124;2023-04-03T06:17:48;0.20;99.90
64012;DHT22;50211;52.768;12.124;2023-04-03T06:20:14;0.20;99.90
64012;DHT22;50211;52.768;12.124;2023-04-03T06:22:39;0.30;99.90
64012;DHT22;50211;52.768;12.124;2023-04-03T06:25:05;0.40;99.90
64012;DHT22;50211;52.768;12.124;2023-04-03T06:27:31;0.50;99.90
64012;DHT22;50211;52.768;12.124;2023-04-03T06:29:57;0.60;99.90
64012;DHT22;50211;52.768;12.124;2023-04-03T06:32:22;0.70;99.90
64012;DHT22;50211;52.768;12.124;2023-04-03T06:34:48;0.70;99.90
64012;DHT22;50211;52.768;12.124;2023-04-03T06:37:20;0.80;99.90
64012;DHT22;50211;52.768;12.124;2023-04-03T06:39:45;0.90;99.90
64012;DHT22;50211;52.768;12.124;2023-04-03T06:42:11;1.10;99.90
64012;DHT22;50211;52.768;12.124;2023-04-03T06:44:37;1.10;99.90
64012;DHT22;50211;52.768;12.124;2023-04-03T06:47:03;1.20;99.90
64012;DHT22;50211;52.768;12.124;2023-04-03T06:49:28;1.30;99.90
64012;DHT22;50211;52.768;12.124;2023-04-03T06:51:55;1.50;99.90
64012;DHT22;50211;52.768;12.124;2023-04-03T06:54:21;1.60;99.90
64012;DHT22;50211;52.768;12.124;2023-04-03T06:56:47;1.80;99.90
64012;DHT22;50211;52.768;12.124;2023-04-03T06:59:12;1.80;99.90
64012;DHT22;50211;52.768;12.124;2023-04-03T07:01:40;2.00;99.90
64012;DHT22;50211;52.768;12.124;2023-04-03T07:04:06;2.20;99.90
64012;DHT22;50211;52.768;12.124;2023-04-03T07:06:32;2.30;99.90
64012;DHT22;50211;52.768;12.124;2023-04-03T07:08:58;2.50;99.90
64012;DHT22;50211;52.768;12.124;2023-04-03T07:11:24;2.60;99.90
64012;DHT22;50211;52.768;12.124;2023-04-03T07:13:50;2.80;99.90
64012;DHT22;50211;52.768;12.124;2023-04-03T07:16:16;3.00;99.90
64012;DHT22;50211;52.768;12.124;2023-04-03T07:18:42;3.10;99.90
64012;DHT22;50211;52.768;12.124;2023-04-03T07:21:07;3.20;99.90
64012;DHT22;50211;52.768;12.124;2023-04-03T07:23:33;3.30;99.90
64012;DHT22;50211;52.768;12.124;2023-04-03T07:25:59;3.50;99.90
64012;DHT22;50211;52.768;12.124;2023-04-03T07:28:25;3.50;99.90
64012;DHT22;50211;52.768;12.124;2023-04-03T07:33:25;3.80;99.90
64012;DHT22;50211;52.768;12.124;2023-04-03T07:35:51;4.00;99.90
64012;DHT22;50211;52.768;12.124;2023-04-03T07:38:16;4.00;99.90
64012;DHT22;50211;52.768;12.124;2023-04-03T07:40:50;4.20;99.90
64012;DHT22;50211;52.768;12.124;2023-04-03T07:43:17;4.20;99.90
64012;DHT22;50211;52.768;12.124;2023-04-03T07:45:43;4.20;99.90
64012;DHT22;50211;52.768;12.124;2023-04-03T07:48:12;4.30;99.90
64012;DHT22;50211;52.768;12.124;2023-04-03T07:50:40;4.40;99.90
64012;DHT22;50211;52.768;12.124;2023-04-03T07:53:06;4.30;99.90
64012;DHT22;50211;52.768;12.124;2023-04-03T07:55:33;4.30;99.90
64012;DHT22;50211;52.768;12.124;2023-04-03T07:57:59;4.40;99.90
64012;DHT22;50211;52.768;12.124;2023-04-03T08:00:24;4.30;99.90
64012;DHT22;50211;52.768;12.124;2023-04-03T08:02:50;4.40;99.90
64012;DHT22;50211;52.768;12.124;2023-04-03T08:05:20;4.20;99.90
64012;DHT22;50211;52.768;12.124;2023-04-03T08:07:46;4.20;99.90
64012;DHT22;50211;52.768;12.124;2023-04-03T08:10:12;4.20;99.90
64012;DHT22;50211;52.768;12.124;2023-04-03T08:12:38;4.10;99.90
64012;DHT22;50211;52.768;12.124;2023-04-03T08:15:04;4.20;99.90
64012;DHT22;50211;52.768;12.124;2023-04-03T08:17:29;4.10;99.90
64012;DHT22;50211;52.768;12.124;2023-04-03T08:19:55;4.20;99.90
64012;DHT22;50211;52.768;12.124;2023-04-03T08:22:20;4.30;99.90
64012;DHT22;50211;52.768;12.124;2023-04-03T08:24:46;4.60;99.90
64012;DHT22;50211;52.768;12.124;2023-04-03T08:27:12;4.70;99.90
64012;DHT22;50211;52.768;12.124;2023-04-03T08:29:37;4.80;99.90
64012;DHT22;50211;52.768;12.124;2023-04-03T08:32:04;4.70;99.90
64012;DHT22;50211;52.768;12.124;2023-04-03T08:34:30;4.80;99.90
64012;DHT22;50211;52.768;12.124;2023-04-03T08:36:56;5.20;99.90
64012;DHT22;50211;52.768;12.124;2023-04-03T08:39:21;5.70;99.90
64012;DHT22;50211;52.768;12.124;2023-04-03T08:41:47;5.90;99.90
64012;DHT22;50211;52.768;12.124;2023-04-03T08:44:25;6.00;99.90
64012;DHT22;50211;52.768;12.124;2023-04-03T08:47:23;6.20;99.90
64012;DHT22;50211;52.768;12.124;2023-04-03T08:49:59;6.60;99.90
64012;DHT22;50211;52.768;12.124;2023-04-03T08:52:44;6.80;99.90
64012;DHT22;50211;52.768;12.124;2023-04-03T08:55:34;6.80;99.90
64012;DHT22;50211;52.768;12.124;2023-04-03T08:58:03;6.90;99.90
64012;DHT22;50211;52.768;12.124;2023-04-03T09:03:14;7.20;99.90
64012;DHT22;50211;52.768;12.124;2023-04-03T09:08:45;7.10;99.90
64012;DHT22;50211;52.768;12.124;2023-04-03T09:11:25;7.00;99.90
64012;DHT22;50211;52.768;12.124;2023-04-03T09:16:49;7.20;99.90
64012;DHT22;50211;52.768;12.124;2023-04-03T09:19:34;7.10;99.90
64012;DHT22;50211;52.768;12.124;2023-04-03T09:24:47;6.60;99.90
64012;DHT22;50211;52.768;12.124;2023-04-03T09:27:13;6.50;99.90
64012;DHT22;50211;52.768;12.124;2023-04-03T09:29:42;7.10;99.90
64012;DHT22;50211;52.768;12.124;2023-04-03T09:32:37;7.70;99.90
64012;DHT22;50211;52.768;12.124;2023-04-03T09:35:24;7.90;99.90
64012;DHT22;50211;52.768;12.124;2023-04-03T09:40:41;7.20;99.90
64012;DHT22;50211;52.768;12.124;2023-04-03T09:45:43;6.70;99.90
64012;DHT22;50211;52.768;12.124;2023-04-03T09:48:16;6.40;99.90
64012;DHT22;50211;52.768;12.124;2023-04-03T09:50:56;6.40;99.90
64012;DHT22;50211;52.768;12.124;2023-04-03T09:53:38;6.60;99.90
64012;DHT22;50211;52.768;12.124;2023-04-03T09:58:47;6.40;99.90
64012;DHT22;50211;52.768;12.124;2023-04-03T10:01:35;6.60;99.90
64012;DHT22;50211;52.768;12.124;2023-04-03T10:06:54;6.80;99.90
64012;DHT22;50211;52.768;12.124;2023-04-03T10:09:27;6.70;99.90
64012;DHT22;50211;52.768;12.124;2023-04-03T10:12:06;6.60;99.90
64012;DHT22;50211;52.768;12.124;2023-04-03T10:20:27;7.60;99.90
64012;DHT22;50211;52.768;12.124;2023-04-03T10:23:18;8.50;99.90
64012;DHT22;50211;52.768;12.124;2023-04-03T10:26:11;9.10;99.90
64012;DHT22;50211;52.768;12.124;2023-04-03T10:28:45;9.40;99.90
64012;DHT22;50211;52.768;12.124;2023-04-03T10:31:14;9.80;99.90
64012;DHT22;50211;52.768;12.124;2023-04-03T10:33:59;9.70;99.90
64012;DHT22;50211;52.768;12.124;2023-04-03T10:36:54;10.50;99.90
64012;DHT22;50211;52.768;12.124;2023-04-03T10:39:35;11.10;99.90
64012;DHT22;50211;52.768;12.124;2023-04-03T10:50:43;10.60;99.90
64012;DHT22;50211;52.768;12.124;2023-04-03T10:53:47;11.30;99.90
64012;DHT22;50211;52.768;12.124;2023-04-03T10:56:16;11.30;99.10
64012;DHT22;50211;52.768;12.124;2023-04-03T10:58:45;11.00;99.10
64012;DHT22;50211;52.768;12.124;2023-04-03T11:01:16;11.60;98.90
64012;DHT22;50211;52.768;12.124;2023-04-03T11:03:48;12.30;98.30
64012;DHT22;50211;52.768;12.124;2023-04-03T11:06:18;12.20;96.40
64012;DHT22;50211;52.768;12.124;2023-04-03T11:08:49;12.30;96.60
64012;DHT22;50211;52.768;12.124;2023-04-03T11:11:19;12.40;97.80
64012;DHT22;50211;52.768;12.124;2023-04-03T11:14:01;12.90;98.40
64012;DHT22;50211;52.768;12.124;2023-04-03T11:16:31;12.70;97.00
64012;DHT22;50211;52.768;12.124;2023-04-03T11:19:50;12.70;94.20
64012;DHT22;50211;52.768;12.124;2023-04-03T11:21:56;12.40;95.80
64012;DHT22;50211;52.768;12.124;2023-04-03T11:24:26;12.70;94.90
64012;DHT22;50211;52.768;12.124;2023-04-03T11:26:54;13.20;94.00
64012;DHT22;50211;52.768;12.124;2023-04-03T11:29:23;13.10;91.20
64012;DHT22;50211;52.768;12.124;2023-04-03T11:32:01;13.70;95.30
64012;DHT22;50211;52.768;12.124;2023-04-03T11:34:41;13.60;92.70
64012;DHT22;50211;52.768;12.124;2023-04-03T11:37:15;13.30;90.70
64012;DHT22;50211;52.768;12.124;2023-04-03T11:39:57;13.60;93.20
64012;DHT22;50211;52.768;12.124;2023-04-03T11:42:42;14.10;87.30
64012;DHT22;50211;52.768;12.124;2023-04-03T11:47:54;12.30;92.80
64012;DHT22;50211;52.768;12.124;2023-04-03T11:50:41;11.60;91.00
64012;DHT22;50211;52.768;12.124;2023-04-03T12:05:48;10.70;97.00
64012;DHT22;50211;52.768;12.124;2023-04-03T12:08:28;10.60;97.00
64012;DHT22;50211;52.768;12.124;2023-04-03T12:16:40;12.50;96.70
64012;DHT22;50211;52.768;12.124;2023-04-03T12:19:38;13.50;93.60
64012;DHT22;50211;52.768;12.124;2023-04-03T12:22:14;13.00;91.50
64012;DHT22;50211;52.768;12.124;2023-04-03T12:24:41;12.50;89.70
64012;DHT22;50211;52.768;12.124;2023-04-03T12:27:24;11.80;94.60
64012;DHT22;50211;52.768;12.124;2023-04-03T12:35:44;11.40;94.80
64012;DHT22;50211;52.768;12.124;2023-04-03T12:41:57;10.60;94.20
64012;DHT22;50211;52.768;12.124;2023-04-03T12:46:42;11.70;94.30
64012;DHT22;50211;52.768;12.124;2023-04-03T12:49:39;12.50;93.50
64012;DHT22;50211;52.768;12.124;2023-04-03T12:52:33;12.90;94.20
64012;DHT22;50211;52.768;12.124;2023-04-03T12:55:01;12.20;94.20
64012;DHT22;50211;52.768;12.124;2023-04-03T12:57:30;11.70;94.40
64012;DHT22;50211;52.768;12.124;2023-04-03T12:59:56;11.20;95.20
64012;DHT22;50211;52.768;12.124;2023-04-03T13:02:26;10.80;96.00
64012;DHT22;50211;52.768;12.124;2023-04-03T13:04:53;10.70;95.20
64012;DHT22;50211;52.768;12.124;2023-04-03T13:07:25;10.80;95.00
64012;DHT22;50211;52.768;12.124;2023-04-03T13:10:15;10.70;95.40
64012;DHT22;50211;52.768;12.124;2023-04-03T13:12:54;11.10;97.60
64012;DHT22;50211;52.768;12.124;2023-04-03T13:15:24;11.90;94.40
64012;DHT22;50211;52.768;12.124;2023-04-03T13:17:50;12.50;91.90
64012;DHT22;50211;52.768;12.124;2023-04-03T13:20:26;12.40;93.20
64012;DHT22;50211;52.768;12.124;2023-04-03T13:23:05;12.50;94.40
64012;DHT22;50211;52.768;12.124;2023-04-03T13:25:33;12.20;94.20
64012;DHT22;50211;52.768;12.124;2023-04-03T13:28:00;12.70;93.70
64012;DHT22;50211;52.768;12.124;2023-04-03T13:30:30;12.30;90.70
64012;DHT22;50211;52.768;12.124;2023-04-03T13:32:59;11.90;93.30
64012;DHT22;50211;52.768;12.124;2023-04-03T13:35:31;11.50;94.20
64012;DHT22;50211;52.768;12.124;2023-04-03T13:38:00;10.90;94.70
64012;DHT22;50211;52.768;12.124;2023-04-03T13:40:25;10.50;96.80
64012;DHT22;50211;52.768;12.124;2023-04-03T13:43:04;10.30;95.70
64012;DHT22;50211;52.768;12.124;2023-04-03T13:45:32;11.20;95.10
64012;DHT22;50211;52.768;12.124;2023-04-03T13:48:19;11.90;92.50
64012;DHT22;50211;52.768;12.124;2023-04-03T13:50:54;12.50;94.10
64012;DHT22;50211;52.768;12.124;2023-04-03T13:53:20;12.30;91.40
64012;DHT22;50211;52.768;12.124;2023-04-03T13:56:05;11.40;93.60
64012;DHT22;50211;52.768;12.124;2023-04-03T13:58:32;10.80;94.90
64012;DHT22;50211;52.768;12.124;2023-04-03T14:03:45;10.00;95.30
64012;DHT22;50211;52.768;12.124;2023-04-03T14:06:14;9.80;94.60
64012;DHT22;50211;52.768;12.124;2023-04-03T14:08:40;10.20;95.10
64012;DHT22;50211;52.768;12.124;2023-04-03T14:11:11;11.10;95.30
64012;DHT22;50211;52.768;12.124;2023-04-03T14:13:38;11.80;93.20
64012;DHT22;50211;52.768;12.124;2023-04-03T14:16:04;11.60;92.20
64012;DHT22;50211;52.768;12.124;2023-04-03T14:18:30;10.90;92.90
64012;DHT22;50211;52.768;12.124;2023-04-03T14:20:55;10.30;93.70
64012;DHT22;50211;52.768;12.124;2023-04-03T14:23:21;9.70;93.50
64012;DHT22;50211;52.768;12.124;2023-04-03T14:25:47;9.40;94.40
64012;DHT22;50211;52.768;12.124;2023-04-03T14:28:18;9.00;94.80
64012;DHT22;50211;52.768;12.124;2023-04-03T14:30:46;8.90;94.60
64012;DHT22;50211;52.768;12.124;2023-04-03T14:33:18;9.30;94.90
64012;DHT22;50211;52.768;12.124;2023-04-03T14:35:45;10.30;94.00
64012;DHT22;50211;52.768;12.124;2023-04-03T14:38:27;10.80;95.40
64012;DHT22;50211;52.768;12.124;2023-04-03T14:40:53;11.30;93.80
64012;DHT22;50211;52.768;12.124;2023-04-03T14:43:19;11.40;93.80
64012;DHT22;50211;52.768;12.124;2023-04-03T14:45:46;11.00;92.60
64012;DHT22;50211;52.768;12.124;2023-04-03T14:48:18;9.80;93.50
64012;DHT22;50211;52.768;12.124;2023-04-03T14:50:44;9.10;94.60
64012;DHT22;50211;52.768;12.124;2023-04-03T14:53:12;9.70;94.10
64012;DHT22;50211;52.768;12.124;2023-04-03T14:55:38;10.20;92.50
64012;DHT22;50211;52.768;12.124;2023-04-03T14:58:03;9.90;94.20
64012;DHT22;50211;52.768;12.124;2023-04-03T15:00:29;9.60;95.20
64012;DHT22;50211;52.768;12.124;2023-04-03T15:02:54;9.50;95.20
64012;DHT22;50211;52.768;12.124;2023-04-03T15:05:20;10.00;94.60
64012;DHT22;50211;52.768;12.124;2023-04-03T15:07:55;10.90;93.00
64012;DHT22;50211;52.768;12.124;2023-04-03T15:10:28;12.00;92.80
64012;DHT22;50211;52.768;12.124;2023-04-03T15:12:54;12.70;90.50
64012;DHT22;50211;52.768;12.124;2023-04-03T15:15:21;12.10;90.50
64012;DHT22;50211;52.768;12.124;2023-04-03T15:17:51;11.30;91.10
64012;DHT22;50211;52.768;12.124;2023-04-03T15:20:20;10.30;92.00
64012;DHT22;50211;52.768;12.124;2023-04-03T15:22:46;9.80;94.50
64012;DHT22;50211;52.768;12.124;2023-04-03T15:25:12;9.40;95.00
64012;DHT22;50211;52.768;12.124;2023-04-03T15:27:38;9.10;95.80
64012;DHT22;50211;52.768;12.124;2023-04-03T15:30:06;8.60;96.80
64012;DHT22;50211;52.768;12.124;2023-04-03T15:32:33;8.40;96.40
64012;DHT22;50211;52.768;12.124;2023-04-03T15:34:59;8.00;97.20
64012;DHT22;50211;52.768;12.124;2023-04-03T15:37:25;7.80;97.10
64012;DHT22;50211;52.768;12.124;2023-04-03T15:39:50;7.80;97.50
64012;DHT22;50211;52.768;12.124;2023-04-03T15:42:16;7.80;96.70
64012;DHT22;50211;52.768;12.124;2023-04-03T15:44:42;8.00;99.30
64012;DHT22;50211;52.768;12.124;2023-04-03T15:47:07;8.00;97.90
64012;DHT22;50211;52.768;12.124;2023-04-03T15:49:33;7.80;96.70
64012;DHT22;50211;52.768;12.124;2023-04-03T15:51:59;7.60;97.40
64012;DHT22;50211;52.768;12.124;2023-04-03T15:54:25;7.50;97.80
64012;DHT22;50211;52.768;12.124;2023-04-03T15:56:52;7.50;97.30
64012;DHT22;50211;52.768;12.124;2023-04-03T15:59:18;7.50;97.50
64012;DHT22;50211;52.768;12.124;2023-04-03T16:01:44;7.40;98.30
64012;DHT22;50211;52.768;12.124;2023-04-03T16:04:10;7.40;98.80
64012;DHT22;50211;52.768;12.124;2023-04-03T16:06:36;7.20;99.10
64012;DHT22;50211;52.768;12.124;2023-04-03T16:09:03;6.90;99.40
64012;DHT22;50211;52.768;12.124;2023-04-03T16:11:29;6.90;99.90
64012;DHT22;50211;52.768;12.124;2023-04-03T16:13:55;6.90;99.90
64012;DHT22;50211;52.768;12.124;2023-04-03T16:16:21;6.80;99.90
64012;DHT22;50211;52.768;12.124;2023-04-03T16:18:47;6.70;99.90
64012;DHT22;50211;52.768;12.124;2023-04-03T16:21:13;6.70;99.90
64012;DHT22;50211;52.768;12.124;2023-04-03T16:23:40;6.80;99.90
64012;DHT22;50211;52.768;12.124;2023-04-03T16:26:06;6.70;99.90
64012;DHT22;50211;52.768;12.124;2023-04-03T16:28:32;6.60;99.90
64012;DHT22;50211;52.768;12.124;2023-04-03T16:30:59;6.50;99.90
64012;DHT22;50211;52.768;12.124;2023-04-03T16:33:25;6.40;99.90
64012;DHT22;50211;52.768;12.124;2023-04-03T16:35:50;6.30;99.90
64012;DHT22;50211;52.768;12.124;2023-04-03T16:38:17;6.30;99.90
64012;DHT22;50211;52.768;12.124;2023-04-03T16:40:44;6.10;99.90
64012;DHT22;50211;52.768;12.124;2023-04-03T16:43:10;6.10;99.90
64012;DHT22;50211;52.768;12.124;2023-04-03T16:45:35;6.10;99.90
64012;DHT22;50211;52.768;12.124;2023-04-03T16:48:01;5.90;99.90
64012;DHT22;50211;52.768;12.124;2023-04-03T16:50:27;5.80;99.90
64012;DHT22;50211;52.768;12.124;2023-04-03T16:52:52;5.80;99.90